Weather reports worldwide

Advertisment
Otranto, Italy (16334): temperature & dewpoint: 23.09.2020 02:00:00 - 29.09.2020 02:00:00 (CEST)Otranto, Italy (16334): wind speed: 23.09.2020 02:00:00 - 29.09.2020 02:00:00 (CEST)Otranto, Italy (16334): wind direction: 23.09.2020 02:00:00 - 29.09.2020 02:00:00 (CEST)Otranto, Italy (16334): precipitation: 23.09.2020 02:00:00 - 29.09.2020 02:00:00 (CEST)
Date & Time tt [°C] td [°C] ff [km/h] ff [kn] dd rr [mm]
29.09.2020 02:00:00 18,6 18,5 11 6 WNW 0,0
29.09.2020 01:00:00 - - - - - -
29.09.2020 00:00:00 19,0 17,8 8 4 W -
28.09.2020 23:00:00 18,5 18,1 11 6 WNW -
28.09.2020 22:00:00 19,1 17,9 13 7 WNW -
28.09.2020 21:00:00 21,0 19,2 13 7 WSW -
28.09.2020 20:00:00 21,3 19,4 8 4 W -
28.09.2020 19:00:00 22,5 20,0 8 4 W -
28.09.2020 18:00:00 23,7 21,3 11 6 W -
28.09.2020 17:00:00 24,1 21,6 9 5 NW -
28.09.2020 16:00:00 25,9 21,7 11 6 SW -
28.09.2020 15:00:00 25,8 22,0 16 9 SW -
28.09.2020 14:00:00 26,1 21,5 15 8 W -
28.09.2020 13:00:00 24,6 22,8 26 14 S -
28.09.2020 12:00:00 24,8 22,4 28 15 S -
28.09.2020 11:00:00 23,7 22,3 16 9 S -
28.09.2020 10:00:00 22,7 22,5 9 5 S -
28.09.2020 09:00:00 20,5 20,4 5 3 WSW -
28.09.2020 08:00:00 19,9 19,8 5 3 SW -
28.09.2020 07:00:00 20,4 20,3 9 5 W -
28.09.2020 06:00:00 20,8 20,7 21 11 SSE -
28.09.2020 05:00:00 20,3 20,2 31 17 S -
28.09.2020 04:00:00 19,5 19,4 13 7 SSW -
28.09.2020 03:00:00 20,3 20,2 41 22 S -
28.09.2020 02:00:00 20,8 20,7 41 22 S -
28.09.2020 01:00:00 20,8 20,7 42 23 SSW -
28.09.2020 00:00:00 23,4 23,0 46 25 S -
27.09.2020 23:00:00 23,3 21,9 42 23 S -
27.09.2020 22:00:00 23,4 22,0 41 22 S -
27.09.2020 21:00:00 23,2 21,8 39 21 SSE -
27.09.2020 20:00:00 23,1 21,5 35 19 SSE -
27.09.2020 19:00:00 23,2 22,1 34 18 S -
27.09.2020 18:00:00 23,4 21,2 29 16 S -
27.09.2020 17:00:00 23,7 22,3 35 19 S -
27.09.2020 16:00:00 25,1 22,5 31 17 S -
27.09.2020 15:00:00 25,3 21,9 34 18 SSW -
27.09.2020 14:00:00 25,2 22,0 31 17 S 0,0
27.09.2020 13:00:00 23,4 21,1 24 13 S -
27.09.2020 12:00:00 25,0 21,7 26 14 S -
27.09.2020 11:00:00 24,1 20,6 21 11 S -
27.09.2020 10:00:00 22,4 18,9 4 2 SSW -
27.09.2020 09:00:00 21,1 17,2 2 1 WSW -
27.09.2020 08:00:00 18,9 15,9 4 2 WSW 0,0
27.09.2020 07:00:00 18,1 15,7 8 4 SW -
27.09.2020 06:00:00 18,3 16,2 8 4 SW -
27.09.2020 05:00:00 18,4 16,1 4 2 S -
27.09.2020 04:00:00 18,3 15,7 5 3 S -
27.09.2020 03:00:00 17,8 15,2 5 3 S -
27.09.2020 02:00:00 17,2 15,5 4 2 SSW 0,0
27.09.2020 01:00:00 16,4 14,7 4 2 SW -
27.09.2020 00:00:00 16,3 14,1 5 3 W -
26.09.2020 23:00:00 16,6 13,6 4 2 WSW -
26.09.2020 22:00:00 17,6 14,2 2 1 WSW -
26.09.2020 21:00:00 17,8 14,6 4 2 WSW -
26.09.2020 20:00:00 18,5 15,3 5 3 SW 0,0
26.09.2020 19:00:00 19,8 16,4 4 2 W -
26.09.2020 18:00:00 21,3 18,0 16 9 WNW -
26.09.2020 17:00:00 22,0 17,5 26 14 W -
26.09.2020 16:00:00 21,3 17,0 22 12 W -
26.09.2020 15:00:00 21,7 18,0 22 12 SW -
26.09.2020 14:00:00 18,0 16,3 31 17 W 0,0
26.09.2020 13:00:00 21,3 18,4 34 18 WNW -
26.09.2020 12:00:00 19,8 17,9 24 13 SW -
26.09.2020 11:00:00 23,6 18,8 22 12 SSW -
26.09.2020 10:00:00 22,9 18,8 18 10 W -
26.09.2020 09:00:00 21,4 19,3 16 9 W -
26.09.2020 08:00:00 21,6 19,1 16 9 W 0,0
26.09.2020 07:00:00 20,9 18,2 16 9 WNW -
26.09.2020 06:00:00 21,6 19,6 15 8 W -
26.09.2020 05:00:00 21,7 20,3 22 12 W -
26.09.2020 04:00:00 22,6 21,2 22 12 WNW -
26.09.2020 03:00:00 24,1 21,7 16 9 WNW -
26.09.2020 02:00:00 24,4 23,3 11 6 WSW 0,0
26.09.2020 01:00:00 25,8 23,8 21 11 SW -
26.09.2020 00:00:00 26,3 24,7 22 12 SSW -
25.09.2020 23:00:00 26,0 26,0 24 13 SSW -
25.09.2020 22:00:00 25,3 25,2 21 11 S -
25.09.2020 21:00:00 25,2 25,1 28 15 SSW -
25.09.2020 20:00:00 25,2 25,1 18 10 S 0,0
25.09.2020 19:00:00 25,5 25,4 26 14 S -
25.09.2020 18:00:00 26,2 26,2 26 14 SSE -
25.09.2020 17:00:00 26,8 26,8 28 15 S -
25.09.2020 16:00:00 27,1 27,1 28 15 S -
25.09.2020 15:00:00 27,2 27,2 29 16 SSE -
25.09.2020 14:00:00 27,1 27,1 29 16 SSE 0,0
25.09.2020 13:00:00 27,6 27,6 34 18 S -
25.09.2020 12:00:00 27,5 27,5 31 17 SE -
25.09.2020 11:00:00 27,0 26,8 26 14 S -
25.09.2020 10:00:00 26,1 26,1 24 13 S -
25.09.2020 09:00:00 25,1 25,0 18 10 S -
25.09.2020 08:00:00 24,6 24,5 15 8 S 0,0
25.09.2020 07:00:00 23,7 23,6 11 6 SSE -
25.09.2020 06:00:00 23,9 23,8 8 4 SSE -
25.09.2020 05:00:00 23,8 23,7 9 5 SSE -
25.09.2020 04:00:00 23,8 23,7 11 6 SSE -
25.09.2020 03:00:00 23,8 23,7 11 6 SSE -
25.09.2020 02:00:00 23,2 23,1 9 5 S 0,0
25.09.2020 01:00:00 23,1 23,0 8 4 S -
25.09.2020 00:00:00 22,9 22,8 8 4 S -
24.09.2020 23:00:00 22,5 22,4 5 3 S -
24.09.2020 22:00:00 23,2 23,1 4 2 SSW -
24.09.2020 21:00:00 23,0 22,9 4 2 S -
24.09.2020 20:00:00 23,2 23,1 4 2 ESE 0,0
24.09.2020 19:00:00 24,4 24,0 4 2 SSE -
24.09.2020 18:00:00 25,8 24,2 4 2 SE -
24.09.2020 17:00:00 25,6 24,0 8 4 SSE -
24.09.2020 16:00:00 26,0 24,7 9 5 E -
24.09.2020 15:00:00 25,1 23,5 11 6 E -
24.09.2020 14:00:00 25,9 24,3 15 8 ESE 0,0
24.09.2020 13:00:00 26,4 25,3 13 7 E -
24.09.2020 12:00:00 25,6 24,0 11 6 ESE -
24.09.2020 11:00:00 26,2 23,8 9 5 N -
24.09.2020 10:00:00 24,7 24,6 4 2 NNW -
24.09.2020 09:00:00 23,0 22,9 5 3 S -
24.09.2020 08:00:00 21,0 20,9 5 3 S -
24.09.2020 07:00:00 20,4 20,3 5 3 S -
24.09.2020 06:00:00 20,8 20,7 9 5 S -
24.09.2020 05:00:00 20,6 20,5 4 2 ESE -
24.09.2020 04:00:00 21,1 21,0 5 3 E -
24.09.2020 03:00:00 20,7 20,6 0 0 N -
24.09.2020 02:00:00 20,8 20,7 4 2 E -
24.09.2020 01:00:00 21,3 21,2 4 2 SSE -
24.09.2020 00:00:00 21,3 21,2 4 2 W -
23.09.2020 23:00:00 23,2 23,1 24 13 S -
23.09.2020 22:00:00 23,9 23,8 31 17 S -
23.09.2020 21:00:00 24,0 23,9 29 16 S -
23.09.2020 20:00:00 22,7 22,6 26 14 S -
23.09.2020 19:00:00 23,5 23,4 29 16 SSE -
23.09.2020 18:00:00 23,7 23,6 28 15 SSE -
23.09.2020 17:00:00 24,0 23,9 24 13 SSE -
23.09.2020 16:00:00 23,5 23,4 31 17 SSE -
23.09.2020 15:00:00 23,0 22,9 21 11 SSE -
23.09.2020 14:00:00 23,4 23,3 28 15 SSE -
23.09.2020 13:00:00 24,5 24,4 28 15 SSE -
23.09.2020 12:00:00 25,5 25,4 24 13 SE -
23.09.2020 11:00:00 24,8 24,7 26 14 SSE -
23.09.2020 10:00:00 23,3 23,2 18 10 SE -
23.09.2020 09:00:00 24,4 24,3 0 0 N -
23.09.2020 08:00:00 24,2 24,1 4 2 SSW 0,0
23.09.2020 07:00:00 24,8 24,7 13 7 SSW -
23.09.2020 06:00:00 24,9 24,8 18 10 S -
23.09.2020 05:00:00 24,9 24,8 21 11 S -
23.09.2020 04:00:00 24,9 24,8 21 11 S -
23.09.2020 03:00:00 24,9 24,8 15 8 S -
23.09.2020 02:00:00 25,0 24,9 18 10 SSE 0,0

tt = temperature
td = dewpoint
ff = wind speed
dd = wind direction
rr = precipitation

Next stations